createdAt,value
2019-02-17T00:02:17.527Z,63.66
2019-02-17T00:04:48.891Z,63.29
2019-02-17T00:07:20.300Z,64.14
2019-02-17T00:09:51.790Z,64.18
2019-02-17T00:12:23.226Z,63.83
2019-02-17T00:14:54.732Z,64.19
2019-02-17T00:17:26.186Z,64.75
2019-02-17T00:19:57.604Z,64.63
2019-02-17T00:22:29.118Z,64.49
2019-02-17T00:25:01.115Z,64.70
2019-02-17T00:27:33.748Z,65.07
2019-02-17T00:30:05.391Z,65.87
2019-02-17T00:32:36.842Z,66.44
2019-02-17T00:35:08.303Z,66.72
2019-02-17T00:37:39.861Z,67.37
2019-02-17T00:40:11.301Z,67.72
2019-02-17T00:42:42.767Z,66.90
2019-02-17T00:45:14.209Z,67.40
2019-02-17T00:47:45.659Z,67.92
2019-02-17T00:50:17.090Z,67.81
2019-02-17T00:52:48.479Z,68.13
2019-02-17T00:55:19.878Z,68.47
2019-02-17T00:57:51.379Z,68.40
2019-02-17T01:00:22.839Z,68.64
2019-02-17T01:02:54.339Z,68.61
2019-02-17T01:05:30.958Z,69.39
2019-02-17T01:08:02.396Z,69.79
2019-02-17T01:10:35.461Z,69.46
2019-02-17T01:13:10.977Z,69.77
2019-02-17T01:15:44.614Z,69.62
2019-02-17T01:18:16.079Z,69.67
2019-02-17T01:20:47.515Z,69.49
2019-02-17T01:23:19.006Z,69.51
2019-02-17T01:25:50.461Z,69.71
2019-02-17T01:28:21.919Z,69.92
2019-02-17T01:30:53.278Z,70.06
2019-02-17T01:33:24.743Z,70.23
2019-02-17T01:35:56.222Z,70.23
2019-02-17T01:38:27.680Z,70.38
2019-02-17T01:40:59.082Z,70.47
2019-02-17T01:43:30.696Z,70.64
2019-02-17T01:46:02.129Z,70.48
2019-02-17T01:48:33.567Z,70.33
2019-02-17T01:51:05.148Z,70.34
2019-02-17T01:53:36.592Z,70.72
2019-02-17T01:56:08.085Z,70.59
2019-02-17T01:58:39.581Z,70.40
2019-02-17T02:01:11.201Z,70.87
2019-02-17T02:03:42.651Z,70.64
2019-02-17T02:06:14.094Z,70.50
2019-02-17T02:08:45.774Z,70.76
2019-02-17T02:11:17.208Z,70.48
2019-02-17T02:13:48.644Z,70.39
2019-02-17T02:16:20.062Z,70.59
2019-02-17T02:18:51.509Z,70.51
2019-02-17T02:21:22.864Z,70.72
2019-02-17T02:23:57.140Z,70.81
2019-02-17T02:26:28.568Z,71.00
2019-02-17T02:29:00.050Z,71.25
2019-02-17T02:31:31.467Z,71.38
2019-02-17T02:34:03.479Z,71.56
2019-02-17T02:36:34.799Z,71.43
2019-02-17T02:39:07.610Z,71.85
2019-02-17T02:41:40.412Z,71.78
2019-02-17T02:44:14.354Z,71.85
2019-02-17T02:46:45.842Z,72.30
2019-02-17T02:49:17.299Z,73.08
2019-02-17T02:51:48.713Z,72.16
2019-02-17T02:54:20.232Z,72.64
2019-02-17T02:56:52.722Z,72.88
2019-02-17T02:59:25.975Z,72.73
2019-02-17T03:01:57.448Z,73.66
2019-02-17T03:04:29.860Z,73.13
2019-02-17T03:07:07.166Z,72.32
2019-02-17T03:09:38.639Z,72.67
2019-02-17T03:12:10.134Z,72.68
2019-02-17T03:14:41.516Z,72.22
2019-02-17T03:17:12.862Z,72.71
2019-02-17T03:19:44.361Z,72.31
2019-02-17T03:22:15.784Z,72.49
2019-02-17T03:24:47.593Z,72.46
2019-02-17T03:27:19.012Z,71.83
2019-02-17T03:29:50.446Z,72.32
2019-02-17T03:32:21.789Z,71.17
2019-02-17T03:34:53.234Z,71.03
2019-02-17T03:37:26.809Z,70.69
2019-02-17T03:39:58.188Z,70.53
2019-02-17T03:42:29.580Z,70.61
2019-02-17T03:45:02.692Z,70.95
2019-02-17T03:47:34.262Z,70.61
2019-02-17T03:50:05.932Z,70.55
2019-02-17T03:52:37.344Z,70.60
2019-02-17T03:55:09.319Z,70.63
2019-02-17T03:57:40.728Z,70.78
2019-02-17T04:00:16.838Z,71.14
2019-02-17T04:02:45.822Z,70.91
2019-02-17T04:05:17.314Z,70.57
2019-02-17T04:07:48.742Z,70.36
2019-02-17T04:10:20.296Z,70.48
2019-02-17T04:12:51.737Z,69.57
2019-02-17T04:15:23.170Z,69.51
2019-02-17T04:17:54.675Z,69.36
2019-02-17T04:20:26.037Z,68.93
2019-02-17T04:22:57.528Z,68.25
2019-02-17T04:25:28.998Z,67.84
2019-02-17T04:28:00.415Z,68.53
2019-02-17T04:30:31.862Z,68.24
2019-02-17T04:33:04.856Z,68.43
2019-02-17T04:35:36.283Z,68.33
2019-02-17T04:38:07.703Z,67.93
2019-02-17T04:40:41.328Z,67.49
2019-02-17T04:43:12.393Z,67.63
2019-02-17T04:45:43.829Z,67.32
2019-02-17T04:48:15.193Z,66.79
2019-02-17T04:50:46.586Z,66.77
2019-02-17T04:53:21.643Z,67.11
2019-02-17T04:55:55.067Z,66.72
2019-02-17T04:58:26.423Z,67.48
2019-02-17T05:00:57.854Z,67.19
2019-02-17T05:03:29.284Z,67.25
2019-02-17T05:06:00.750Z,67.51
2019-02-17T05:08:32.176Z,67.65
2019-02-17T05:11:03.643Z,67.64
2019-02-17T05:13:35.059Z,67.79
2019-02-17T05:16:06.494Z,67.99
2019-02-17T05:18:37.831Z,67.87
2019-02-17T05:21:10.216Z,68.12
2019-02-17T05:23:41.563Z,68.12
2019-02-17T05:26:13.035Z,69.25
2019-02-17T05:28:44.487Z,68.54
2019-02-17T05:31:15.918Z,68.13
2019-02-17T05:33:47.323Z,67.91
2019-02-17T05:36:18.812Z,68.98
2019-02-17T05:38:50.121Z,69.04
2019-02-17T05:41:21.611Z,68.16
2019-02-17T05:43:53.035Z,68.29
2019-02-17T05:46:24.516Z,67.62
2019-02-17T05:48:55.938Z,67.15
2019-02-17T05:51:27.460Z,67.50
2019-02-17T05:53:58.838Z,67.00
2019-02-17T05:56:31.795Z,67.24
2019-02-17T05:59:03.239Z,67.14
2019-02-17T06:01:34.707Z,67.12
2019-02-17T06:04:06.108Z,67.33
2019-02-17T06:06:37.560Z,67.19
2019-02-17T06:09:12.603Z,68.24
2019-02-17T06:11:43.712Z,68.42
2019-02-17T06:14:15.675Z,68.52
2019-02-17T06:16:47.099Z,68.85
2019-02-17T06:19:18.447Z,68.71
2019-02-17T06:21:49.894Z,69.09
2019-02-17T06:24:21.267Z,68.78
2019-02-17T06:26:52.961Z,69.27
2019-02-17T06:29:24.364Z,68.97
2019-02-17T06:31:55.834Z,68.89
2019-02-17T06:34:27.307Z,69.28
2019-02-17T06:36:58.788Z,68.43
2019-02-17T06:39:30.211Z,66.92
2019-02-17T06:42:01.744Z,65.40
2019-02-17T06:44:33.266Z,65.87
2019-02-17T06:47:06.432Z,66.70
2019-02-17T06:49:39.406Z,67.59
2019-02-17T06:52:10.782Z,67.12
2019-02-17T06:54:43.853Z,66.85
2019-02-17T06:57:37.801Z,67.58
2019-02-17T07:00:17.994Z,67.59
2019-02-17T07:02:49.367Z,68.09
2019-02-17T07:05:48.209Z,66.94
2019-02-17T07:08:19.593Z,67.01
2019-02-17T07:10:54.127Z,66.03
2019-02-17T07:13:25.225Z,64.92
2019-02-17T07:15:56.647Z,64.14
2019-02-17T07:18:28.110Z,61.39
2019-02-17T07:20:59.545Z,59.84
2019-02-17T07:23:31.082Z,55.86
2019-02-17T07:26:05.347Z,53.57
2019-02-17T07:28:36.831Z,57.53
2019-02-17T07:31:09.899Z,53.54
2019-02-17T07:33:41.347Z,57.11
2019-02-17T07:36:12.674Z,58.17
2019-02-17T07:38:44.143Z,58.87
2019-02-17T07:41:15.555Z,56.42
2019-02-17T07:43:47.004Z,53.62
2019-02-17T07:46:18.464Z,43.10
2019-02-17T07:48:49.938Z,45.37
2019-02-17T07:51:21.359Z,51.52
2019-02-17T07:53:52.862Z,51.73
2019-02-17T07:56:24.377Z,52.30
2019-02-17T07:58:55.791Z,53.83
2019-02-17T08:01:27.266Z,50.84
2019-02-17T08:03:58.716Z,49.64
2019-02-17T08:06:30.135Z,49.18
2019-02-17T08:09:01.562Z,47.10
2019-02-17T08:11:34.590Z,47.21
2019-02-17T08:14:06.093Z,43.83
2019-02-17T08:16:41.088Z,45.54
2019-02-17T08:19:12.551Z,46.59
2019-02-17T08:21:44.000Z,47.26
2019-02-17T08:24:15.474Z,46.04
2019-02-17T08:26:46.888Z,45.29
2019-02-17T08:29:18.304Z,43.79
2019-02-17T08:31:55.776Z,38.33
2019-02-17T08:34:22.882Z,38.40
2019-02-17T08:36:54.340Z,41.35
2019-02-17T08:39:25.809Z,41.83
2019-02-17T08:41:57.254Z,41.45
2019-02-17T08:44:28.842Z,39.78
2019-02-17T08:47:00.328Z,37.74
2019-02-17T08:49:31.950Z,39.56
2019-02-17T08:52:03.399Z,39.29
2019-02-17T08:54:34.834Z,37.76
2019-02-17T08:57:06.318Z,34.12
2019-02-17T08:59:38.870Z,34.42
2019-02-17T09:02:10.310Z,35.02
2019-02-17T09:04:41.664Z,36.74
2019-02-17T09:07:13.134Z,35.61
2019-02-17T09:09:44.542Z,35.45
2019-02-17T09:12:16.000Z,35.62
2019-02-17T09:14:47.502Z,35.57
2019-02-17T09:17:18.985Z,34.91
2019-02-17T09:19:50.412Z,35.82
2019-02-17T09:22:25.374Z,35.92
2019-02-17T09:24:56.851Z,34.88
2019-02-17T09:27:28.290Z,30.19
2019-02-17T09:30:02.277Z,30.65
2019-02-17T09:32:33.721Z,32.23
2019-02-17T09:35:05.422Z,30.90
2019-02-17T09:37:36.905Z,29.78
2019-02-17T09:40:10.216Z,31.76
2019-02-17T09:42:47.131Z,32.20
2019-02-17T09:45:19.119Z,31.10
2019-02-17T09:47:50.561Z,29.72
2019-02-17T09:50:22.668Z,32.15
2019-02-17T09:52:54.089Z,32.67
2019-02-17T09:55:25.541Z,32.27
2019-02-17T09:57:56.963Z,31.58
2019-02-17T10:00:28.418Z,30.54
2019-02-17T10:03:00.067Z,30.16
2019-02-17T10:05:33.324Z,29.46
2019-02-17T10:08:05.032Z,29.64
2019-02-17T10:10:36.487Z,30.23
2019-02-17T10:13:07.920Z,29.97
2019-02-17T10:15:42.406Z,30.01
2019-02-17T10:18:13.772Z,29.24
2019-02-17T10:20:45.236Z,27.34
2019-02-17T10:23:17.612Z,24.31
2019-02-17T10:25:49.092Z,25.95
2019-02-17T10:28:22.529Z,24.95
2019-02-17T10:30:53.957Z,24.96
2019-02-17T10:33:25.442Z,25.76
2019-02-17T10:35:56.828Z,26.42
2019-02-17T10:38:28.386Z,26.65
2019-02-17T10:40:59.877Z,26.59
2019-02-17T10:43:31.371Z,26.27
2019-02-17T10:46:02.848Z,26.72
2019-02-17T10:48:34.302Z,26.18
2019-02-17T10:51:05.771Z,26.46
2019-02-17T10:53:37.222Z,25.59
2019-02-17T10:56:08.697Z,25.68
2019-02-17T10:58:41.190Z,25.77
2019-02-17T11:01:12.652Z,25.94
2019-02-17T11:04:03.665Z,25.09
2019-02-17T11:06:35.260Z,25.25
2019-02-17T11:09:21.976Z,25.29
2019-02-17T11:11:54.362Z,25.43
2019-02-17T11:14:25.842Z,25.29
2019-02-17T11:16:57.267Z,26.21
2019-02-17T11:19:28.789Z,25.08
2019-02-17T11:22:00.379Z,25.66
2019-02-17T11:24:31.810Z,26.01
2019-02-17T11:27:03.303Z,25.03
2019-02-17T11:29:34.945Z,25.08
2019-02-17T11:32:06.471Z,24.69
2019-02-17T11:34:37.842Z,24.22
2019-02-17T11:37:09.339Z,24.45
2019-02-17T11:39:40.853Z,24.33
2019-02-17T11:42:12.521Z,24.50
2019-02-17T11:44:44.076Z,24.88
2019-02-17T11:47:15.570Z,24.80
2019-02-17T11:49:47.068Z,23.99
2019-02-17T11:52:18.546Z,24.23
2019-02-17T11:54:49.972Z,24.06
2019-02-17T11:57:21.578Z,24.39
2019-02-17T11:59:53.494Z,23.69
2019-02-17T12:02:25.497Z,24.74
2019-02-17T12:04:57.036Z,24.46
2019-02-17T12:07:28.751Z,24.01
2019-02-17T12:10:00.429Z,24.55
2019-02-17T12:12:31.910Z,23.52
2019-02-17T12:15:04.537Z,23.84
2019-02-17T12:17:36.774Z,23.55
2019-02-17T12:20:32.423Z,23.17
2019-02-17T12:23:14.380Z,22.10
2019-02-17T12:25:54.338Z,22.02
2019-02-17T12:28:34.249Z,21.60
2019-02-17T12:31:06.471Z,21.80
2019-02-17T12:33:37.942Z,21.34
2019-02-17T12:36:09.851Z,21.93
2019-02-17T12:38:41.407Z,21.95
2019-02-17T12:41:12.948Z,21.45
2019-02-17T12:43:44.390Z,21.12
2019-02-17T12:46:15.780Z,21.08
2019-02-17T12:48:48.077Z,21.42
2019-02-17T12:51:22.080Z,21.57
2019-02-17T12:53:59.268Z,21.34
2019-02-17T12:56:29.736Z,21.60
2019-02-17T12:59:02.547Z,21.43
2019-02-17T13:01:33.950Z,21.35
2019-02-17T13:04:05.462Z,20.62
2019-02-17T13:06:36.923Z,20.82
2019-02-17T13:09:09.157Z,20.58
2019-02-17T13:11:42.601Z,20.94
2019-02-17T13:14:15.826Z,20.19
2019-02-17T13:16:47.598Z,19.03
2019-02-17T13:19:19.052Z,19.31
2019-02-17T13:21:50.482Z,19.71
2019-02-17T13:24:21.947Z,19.78
2019-02-17T13:26:53.515Z,19.30
2019-02-17T13:29:25.143Z,19.50
2019-02-17T13:31:56.609Z,19.78
2019-02-17T13:34:30.133Z,19.74
2019-02-17T13:37:01.590Z,19.56
2019-02-17T13:39:35.660Z,19.41
2019-02-17T13:42:07.083Z,18.95
2019-02-17T13:44:38.567Z,18.45
2019-02-17T13:47:09.999Z,18.60
2019-02-17T13:49:41.703Z,17.93
2019-02-17T13:52:13.234Z,18.22
2019-02-17T13:54:44.807Z,18.84
2019-02-17T13:57:16.371Z,19.25
2019-02-17T13:59:48.017Z,18.37
2019-02-17T14:02:19.510Z,17.95
2019-02-17T14:04:51.084Z,18.63
2019-02-17T14:07:22.600Z,18.12
2019-02-17T14:09:56.838Z,18.76
2019-02-17T14:12:28.452Z,18.45
2019-02-17T14:15:00.291Z,18.99
2019-02-17T14:17:31.686Z,18.53
2019-02-17T14:20:07.460Z,18.24
2019-02-17T14:22:38.477Z,17.95
2019-02-17T14:25:11.259Z,18.58
2019-02-17T14:27:42.863Z,18.16
2019-02-17T14:30:14.762Z,17.79
2019-02-17T14:32:46.227Z,17.12
2019-02-17T14:35:17.857Z,17.26
2019-02-17T14:37:49.350Z,18.34
2019-02-17T14:40:20.786Z,17.54
2019-02-17T14:42:52.235Z,18.85
2019-02-17T14:45:23.673Z,20.22
2019-02-17T14:47:55.132Z,20.02
2019-02-17T14:50:26.567Z,20.09
2019-02-17T14:52:57.990Z,20.65
2019-02-17T14:55:29.392Z,21.22
2019-02-17T14:58:05.454Z,20.44
2019-02-17T15:00:34.011Z,20.62
2019-02-17T15:03:05.540Z,20.79
2019-02-17T15:05:36.980Z,20.67
2019-02-17T15:08:08.432Z,19.98
2019-02-17T15:10:40.021Z,20.43
2019-02-17T15:13:11.577Z,20.85
2019-02-17T15:15:43.188Z,20.36
2019-02-17T15:18:14.722Z,20.83
2019-02-17T15:20:48.097Z,20.72
2019-02-17T15:23:19.600Z,21.19
2019-02-17T15:25:51.067Z,20.78
2019-02-17T15:28:22.486Z,21.05
2019-02-17T15:30:54.120Z,21.22
2019-02-17T15:33:25.532Z,21.41
2019-02-17T15:35:57.015Z,21.69
2019-02-17T15:38:28.447Z,21.84
2019-02-17T15:40:59.916Z,22.53
2019-02-17T15:43:31.370Z,22.34
2019-02-17T15:46:02.849Z,23.08
2019-02-17T15:48:34.356Z,23.42
2019-02-17T15:51:06.720Z,24.38
2019-02-17T15:53:38.431Z,24.14
2019-02-17T15:56:10.015Z,24.36
2019-02-17T15:58:41.474Z,24.29
2019-02-17T16:01:12.917Z,24.24
2019-02-17T16:03:45.050Z,23.83
2019-02-17T16:06:16.681Z,24.00
2019-02-17T16:08:48.124Z,23.92
2019-02-17T16:11:21.154Z,24.75
2019-02-17T16:13:52.590Z,24.90
2019-02-17T16:16:24.081Z,25.10
2019-02-17T16:18:55.511Z,25.46
2019-02-17T16:21:26.994Z,26.00
2019-02-17T16:24:00.776Z,25.72
2019-02-17T16:26:32.239Z,25.54
2019-02-17T16:29:03.673Z,24.68
2019-02-17T16:31:35.148Z,25.13
2019-02-17T16:34:06.508Z,25.33
2019-02-17T16:36:38.085Z,25.50
2019-02-17T16:39:13.078Z,25.18
2019-02-17T16:41:44.540Z,24.76
2019-02-17T16:44:16.015Z,24.89
2019-02-17T16:46:47.511Z,25.40
2019-02-17T16:49:18.948Z,26.25
2019-02-17T16:51:50.463Z,28.61
2019-02-17T16:54:21.900Z,27.55
2019-02-17T16:56:53.342Z,29.32
2019-02-17T16:59:24.793Z,28.29
2019-02-17T17:01:56.351Z,31.01
2019-02-17T17:04:27.814Z,30.81
2019-02-17T17:07:00.961Z,31.07
2019-02-17T17:09:32.684Z,32.17
2019-02-17T17:12:04.428Z,29.57
2019-02-17T17:14:35.943Z,29.68
2019-02-17T17:17:07.381Z,31.45
2019-02-17T17:19:38.804Z,34.98
2019-02-17T17:22:10.270Z,35.29
2019-02-17T17:24:41.747Z,34.77
2019-02-17T17:27:13.404Z,38.20
2019-02-17T17:29:44.861Z,38.55
2019-02-17T17:32:16.351Z,39.11
2019-02-17T17:34:49.432Z,38.27
2019-02-17T17:37:22.794Z,40.07
2019-02-17T17:39:54.331Z,41.43
2019-02-17T17:42:25.834Z,41.39
2019-02-17T17:44:57.251Z,42.85
2019-02-17T17:47:28.728Z,43.38
2019-02-17T17:50:00.154Z,44.87
2019-02-17T17:52:31.743Z,45.35
2019-02-17T17:55:03.179Z,45.39
2019-02-17T17:57:34.692Z,45.81
2019-02-17T18:00:07.503Z,46.14
2019-02-17T18:02:39.314Z,46.64
2019-02-17T18:05:10.748Z,47.73
2019-02-17T18:07:42.197Z,47.20
2019-02-17T18:10:14.735Z,48.17
2019-02-17T18:12:46.304Z,47.78
2019-02-17T18:15:17.757Z,48.41
2019-02-17T18:17:54.644Z,48.98
2019-02-17T18:20:22.420Z,49.18
2019-02-17T18:22:54.038Z,49.49
2019-02-17T18:25:25.583Z,49.60
2019-02-17T18:27:57.088Z,50.46
2019-02-17T18:30:30.372Z,51.50
2019-02-17T18:33:01.845Z,51.57
2019-02-17T18:35:35.226Z,51.96
2019-02-17T18:38:08.085Z,52.89
2019-02-17T18:40:44.925Z,53.70
2019-02-17T18:43:12.694Z,54.45
2019-02-17T18:45:44.124Z,53.54
2019-02-17T18:48:15.570Z,53.13
2019-02-17T18:50:46.959Z,52.96
2019-02-17T18:53:18.426Z,53.38
2019-02-17T18:55:49.936Z,54.25
2019-02-17T18:58:21.556Z,54.04
2019-02-17T19:00:53.086Z,54.91
2019-02-17T19:03:24.534Z,54.58
2019-02-17T19:05:57.141Z,54.27
2019-02-17T19:08:28.712Z,54.66
2019-02-17T19:11:00.156Z,54.42
2019-02-17T19:13:31.974Z,54.54
2019-02-17T19:16:03.377Z,54.33
2019-02-17T19:18:34.908Z,54.48
2019-02-17T19:21:06.447Z,55.28
2019-02-17T19:23:37.939Z,55.47
2019-02-17T19:26:09.369Z,55.96
2019-02-17T19:28:40.934Z,56.65
2019-02-17T19:31:12.400Z,56.58
2019-02-17T19:33:43.876Z,56.84
2019-02-17T19:36:15.316Z,58.25
2019-02-17T19:38:46.778Z,57.89
2019-02-17T19:41:18.245Z,57.95
2019-02-17T19:43:49.718Z,57.53
2019-02-17T19:46:21.163Z,58.05
2019-02-17T19:48:52.636Z,58.22
2019-02-17T19:51:24.363Z,58.07
2019-02-17T19:53:55.884Z,58.08
2019-02-17T19:56:27.257Z,58.09
2019-02-17T19:58:58.750Z,57.87
2019-02-17T20:01:30.290Z,58.81
2019-02-17T20:04:32.592Z,58.99
2019-02-17T20:07:04.122Z,59.11
2019-02-17T20:09:35.611Z,59.30
2019-02-17T20:12:07.049Z,59.30
2019-02-17T20:14:38.502Z,59.65
2019-02-17T20:17:10.021Z,59.58
2019-02-17T20:19:41.485Z,59.94
2019-02-17T20:22:12.953Z,60.18
2019-02-17T20:24:44.526Z,60.27
2019-02-17T20:27:15.948Z,60.35
2019-02-17T20:29:47.724Z,60.34
2019-02-17T20:32:23.928Z,61.02
2019-02-17T20:34:55.398Z,60.80
2019-02-17T20:37:26.857Z,60.29
2019-02-17T20:40:00.774Z,60.38
2019-02-17T20:42:32.325Z,60.19
2019-02-17T20:45:03.821Z,60.06
2019-02-17T20:47:35.254Z,60.10
2019-02-17T20:50:06.967Z,60.36
2019-02-17T20:52:38.841Z,60.29
2019-02-17T20:55:10.398Z,60.47
2019-02-17T20:57:41.876Z,60.52
2019-02-17T21:00:13.460Z,60.37
2019-02-17T21:02:44.907Z,60.62
2019-02-17T21:05:16.483Z,60.34
2019-02-17T21:07:47.994Z,60.19
2019-02-17T21:10:19.455Z,60.14
2019-02-17T21:12:50.968Z,60.61
2019-02-17T21:15:22.605Z,60.65
2019-02-17T21:17:54.039Z,60.18
2019-02-17T21:20:25.825Z,60.62
2019-02-17T21:22:57.330Z,60.56
2019-02-17T21:25:28.801Z,60.20
2019-02-17T21:28:00.361Z,60.07
2019-02-17T21:30:31.849Z,60.11
2019-02-17T21:33:03.723Z,59.68
2019-02-17T21:35:35.264Z,58.82
2019-02-17T21:38:06.717Z,58.26
2019-02-17T21:40:38.146Z,58.62
2019-02-17T21:43:09.654Z,58.81
2019-02-17T21:45:41.142Z,58.35
2019-02-17T21:48:12.570Z,59.06
2019-02-17T21:50:44.044Z,59.10
2019-02-17T21:53:20.292Z,58.57
2019-02-17T21:55:50.936Z,58.57
2019-02-17T21:58:23.437Z,58.46
2019-02-17T22:00:56.006Z,58.95
2019-02-17T22:03:27.429Z,58.99
2019-02-17T22:05:58.907Z,59.23
2019-02-17T22:08:38.002Z,59.83
2019-02-17T22:11:09.562Z,59.49
2019-02-17T22:13:40.992Z,60.28
2019-02-17T22:16:12.533Z,58.85
2019-02-17T22:18:43.994Z,59.43
2019-02-17T22:21:15.464Z,59.09
2019-02-17T22:23:46.889Z,58.50
2019-02-17T22:26:18.358Z,58.86
2019-02-17T22:28:49.864Z,58.75
2019-02-17T22:31:21.303Z,59.00
2019-02-17T22:33:52.813Z,59.05
2019-02-17T22:36:24.286Z,59.43
2019-02-17T22:38:59.617Z,59.49
2019-02-17T22:41:31.165Z,59.38
2019-02-17T22:44:02.661Z,59.73
2019-02-17T22:46:34.129Z,60.55
2019-02-17T22:49:05.710Z,60.29
2019-02-17T22:51:37.167Z,59.60
2019-02-17T22:54:08.598Z,59.68
2019-02-17T22:56:40.633Z,59.82
2019-02-17T22:59:12.052Z,59.62
2019-02-17T23:01:43.505Z,59.44
2019-02-17T23:04:15.233Z,60.16
2019-02-17T23:06:53.904Z,60.59
2019-02-17T23:09:20.435Z,60.79
2019-02-17T23:11:51.964Z,60.69
2019-02-17T23:14:23.395Z,60.61
2019-02-17T23:16:54.939Z,60.82
2019-02-17T23:19:26.352Z,60.85
2019-02-17T23:21:57.801Z,60.91
2019-02-17T23:24:29.326Z,60.43
2019-02-17T23:27:00.752Z,61.34
2019-02-17T23:29:32.602Z,60.66
2019-02-17T23:32:04.190Z,61.83
2019-02-17T23:34:35.637Z,61.64
2019-02-17T23:37:07.076Z,61.34
2019-02-17T23:39:38.502Z,61.44
2019-02-17T23:42:10.046Z,61.36
2019-02-17T23:44:41.468Z,61.31
2019-02-17T23:47:12.922Z,61.63
2019-02-17T23:49:44.342Z,61.07
2019-02-17T23:52:17.449Z,61.14
2019-02-17T23:54:48.877Z,60.74
2019-02-17T23:57:20.323Z,60.86
2019-02-17T23:59:53.225Z,60.95
